sensor_id;sensor_type;location;lat;lon;timestamp;P1;durP1;ratioP1;P2;durP2;ratioP2
11046;SDS011;5576;50.008;10.596;2023-04-15T00:01:24;3.67;;;3.38;;
11046;SDS011;5576;50.008;10.596;2023-04-15T00:03:51;5.68;;;3.47;;
11046;SDS011;5576;50.008;10.596;2023-04-15T00:06:18;5.15;;;3.70;;
11046;SDS011;5576;50.008;10.596;2023-04-15T00:08:45;4.57;;;3.67;;
11046;SDS011;5576;50.008;10.596;2023-04-15T00:11:14;5.47;;;4.00;;
11046;SDS011;5576;50.008;10.596;2023-04-15T00:13:41;6.85;;;4.40;;
11046;SDS011;5576;50.008;10.596;2023-04-15T00:16:08;6.63;;;3.92;;
11046;SDS011;5576;50.008;10.596;2023-04-15T00:18:34;3.95;;;3.50;;
11046;SDS011;5576;50.008;10.596;2023-04-15T00:21:01;3.88;;;3.10;;
11046;SDS011;5576;50.008;10.596;2023-04-15T00:23:28;4.13;;;3.00;;
11046;SDS011;5576;50.008;10.596;2023-04-15T00:25:54;3.83;;;3.30;;
11046;SDS011;5576;50.008;10.596;2023-04-15T00:28:21;3.30;;;3.00;;
11046;SDS011;5576;50.008;10.596;2023-04-15T00:30:46;4.70;;;2.90;;
11046;SDS011;5576;50.008;10.596;2023-04-15T00:33:13;3.58;;;3.17;;
11046;SDS011;5576;50.008;10.596;2023-04-15T00:35:40;3.13;;;2.80;;
11046;SDS011;5576;50.008;10.596;2023-04-15T00:38:07;3.40;;;2.60;;
11046;SDS011;5576;50.008;10.596;2023-04-15T00:40:33;2.90;;;2.60;;
11046;SDS011;5576;50.008;10.596;2023-04-15T00:42:59;3.67;;;2.95;;
11046;SDS011;5576;50.008;10.596;2023-04-15T00:45:25;3.28;;;2.97;;
11046;SDS011;5576;50.008;10.596;2023-04-15T00:47:53;3.50;;;3.10;;
11046;SDS011;5576;50.008;10.596;2023-04-15T00:50:19;4.93;;;3.20;;
11046;SDS011;5576;50.008;10.596;2023-04-15T00:52:45;3.90;;;3.10;;
11046;SDS011;5576;50.008;10.596;2023-04-15T00:55:11;5.23;;;3.47;;
11046;SDS011;5576;50.008;10.596;2023-04-15T00:57:38;3.63;;;3.33;;
11046;SDS011;5576;50.008;10.596;2023-04-15T01:00:04;3.50;;;3.20;;
11046;SDS011;5576;50.008;10.596;2023-04-15T01:02:32;3.50;;;3.00;;
11046;SDS011;5576;50.008;10.596;2023-04-15T01:05:00;3.40;;;3.10;;
11046;SDS011;5576;50.008;10.596;2023-04-15T01:07:26;3.40;;;3.10;;
11046;SDS011;5576;50.008;10.596;2023-04-15T01:09:52;3.83;;;3.47;;
11046;SDS011;5576;50.008;10.596;2023-04-15T01:12:18;3.70;;;3.40;;
11046;SDS011;5576;50.008;10.596;2023-04-15T01:14:44;4.00;;;3.50;;
11046;SDS011;5576;50.008;10.596;2023-04-15T01:17:10;4.40;;;4.00;;
11046;SDS011;5576;50.008;10.596;2023-04-15T01:19:38;3.97;;;3.63;;
11046;SDS011;5576;50.008;10.596;2023-04-15T01:22:04;4.90;;;4.00;;
11046;SDS011;5576;50.008;10.596;2023-04-15T01:24:31;4.20;;;3.90;;
11046;SDS011;5576;50.008;10.596;2023-04-15T01:26:58;4.63;;;4.10;;
11046;SDS011;5576;50.008;10.596;2023-04-15T01:29:24;4.20;;;3.80;;
11046;SDS011;5576;50.008;10.596;2023-04-15T01:31:50;4.68;;;4.28;;
11046;SDS011;5576;50.008;10.596;2023-04-15T01:34:17;4.43;;;4.03;;
11046;SDS011;5576;50.008;10.596;2023-04-15T01:36:43;4.70;;;4.30;;
11046;SDS011;5576;50.008;10.596;2023-04-15T01:39:09;5.13;;;4.25;;
11046;SDS011;5576;50.008;10.596;2023-04-15T01:41:35;4.32;;;3.88;;
11046;SDS011;5576;50.008;10.596;2023-04-15T01:44:01;4.50;;;3.60;;
11046;SDS011;5576;50.008;10.596;2023-04-15T01:46:26;4.55;;;4.10;;
11046;SDS011;5576;50.008;10.596;2023-04-15T01:48:52;5.33;;;4.23;;
11046;SDS011;5576;50.008;10.596;2023-04-15T01:51:18;4.90;;;4.43;;
11046;SDS011;5576;50.008;10.596;2023-04-15T01:53:44;4.70;;;4.20;;
11046;SDS011;5576;50.008;10.596;2023-04-15T01:56:10;4.53;;;4.10;;
11046;SDS011;5576;50.008;10.596;2023-04-15T01:58:36;5.03;;;3.92;;
11046;SDS011;5576;50.008;10.596;2023-04-15T02:01:02;4.18;;;3.78;;
11046;SDS011;5576;50.008;10.596;2023-04-15T02:03:30;4.35;;;3.67;;
11046;SDS011;5576;50.008;10.596;2023-04-15T02:05:56;5.05;;;4.28;;
11046;SDS011;5576;50.008;10.596;2023-04-15T02:08:22;5.13;;;4.20;;
11046;SDS011;5576;50.008;10.596;2023-04-15T02:10:48;4.22;;;3.83;;
11046;SDS011;5576;50.008;10.596;2023-04-15T02:13:14;5.60;;;4.00;;
11046;SDS011;5576;50.008;10.596;2023-04-15T02:15:45;4.57;;;3.80;;
11046;SDS011;5576;50.008;10.596;2023-04-15T02:18:12;4.65;;;4.20;;
11046;SDS011;5576;50.008;10.596;2023-04-15T02:20:39;4.10;;;3.70;;
11046;SDS011;5576;50.008;10.596;2023-04-15T02:23:04;4.07;;;3.67;;
11046;SDS011;5576;50.008;10.596;2023-04-15T02:25:31;4.10;;;3.63;;
11046;SDS011;5576;50.008;10.596;2023-04-15T02:27:57;4.83;;;3.30;;
11046;SDS011;5576;50.008;10.596;2023-04-15T02:30:23;4.80;;;3.67;;
11046;SDS011;5576;50.008;10.596;2023-04-15T02:32:49;4.32;;;3.92;;
11046;SDS011;5576;50.008;10.596;2023-04-15T02:35:15;4.63;;;3.83;;
11046;SDS011;5576;50.008;10.596;2023-04-15T02:37:44;4.78;;;4.38;;
11046;SDS011;5576;50.008;10.596;2023-04-15T02:40:11;5.32;;;4.60;;
11046;SDS011;5576;50.008;10.596;2023-04-15T02:42:37;4.70;;;4.30;;
11046;SDS011;5576;50.008;10.596;2023-04-15T02:45:05;5.32;;;4.82;;
11046;SDS011;5576;50.008;10.596;2023-04-15T02:47:33;5.10;;;4.60;;
11046;SDS011;5576;50.008;10.596;2023-04-15T02:50:01;5.03;;;4.60;;
11046;SDS011;5576;50.008;10.596;2023-04-15T02:52:29;5.85;;;5.35;;
11046;SDS011;5576;50.008;10.596;2023-04-15T02:54:55;5.88;;;5.38;;
11046;SDS011;5576;50.008;10.596;2023-04-15T02:57:26;4.88;;;4.38;;
11046;SDS011;5576;50.008;10.596;2023-04-15T02:59:55;4.80;;;4.40;;
11046;SDS011;5576;50.008;10.596;2023-04-15T03:02:21;5.68;;;5.07;;
11046;SDS011;5576;50.008;10.596;2023-04-15T03:04:47;4.80;;;4.40;;
11046;SDS011;5576;50.008;10.596;2023-04-15T03:07:13;5.07;;;4.50;;
11046;SDS011;5576;50.008;10.596;2023-04-15T03:09:39;6.50;;;5.00;;
11046;SDS011;5576;50.008;10.596;2023-04-15T03:12:06;6.00;;;5.10;;
11046;SDS011;5576;50.008;10.596;2023-04-15T03:14:31;6.00;;;4.60;;
11046;SDS011;5576;50.008;10.596;2023-04-15T03:16:57;5.93;;;4.63;;
11046;SDS011;5576;50.008;10.596;2023-04-15T03:19:24;4.13;;;3.72;;
11046;SDS011;5576;50.008;10.596;2023-04-15T03:21:50;4.90;;;4.50;;
11046;SDS011;5576;50.008;10.596;2023-04-15T03:24:17;4.75;;;4.30;;
11046;SDS011;5576;50.008;10.596;2023-04-15T03:26:43;4.68;;;3.97;;
11046;SDS011;5576;50.008;10.596;2023-04-15T03:29:13;5.10;;;4.60;;
11046;SDS011;5576;50.008;10.596;2023-04-15T03:31:40;5.00;;;4.50;;
11046;SDS011;5576;50.008;10.596;2023-04-15T03:34:06;5.63;;;5.03;;
11046;SDS011;5576;50.008;10.596;2023-04-15T03:36:32;5.03;;;4.53;;
11046;SDS011;5576;50.008;10.596;2023-04-15T03:38:58;5.67;;;4.63;;
11046;SDS011;5576;50.008;10.596;2023-04-15T03:41:23;5.30;;;4.80;;
11046;SDS011;5576;50.008;10.596;2023-04-15T03:43:49;6.32;;;4.90;;
11046;SDS011;5576;50.008;10.596;2023-04-15T03:46:16;6.10;;;5.50;;
11046;SDS011;5576;50.008;10.596;2023-04-15T03:48:42;6.55;;;5.63;;
11046;SDS011;5576;50.008;10.596;2023-04-15T03:51:08;5.47;;;4.87;;
11046;SDS011;5576;50.008;10.596;2023-04-15T03:53:34;4.75;;;4.15;;
11046;SDS011;5576;50.008;10.596;2023-04-15T03:56:00;4.82;;;4.32;;
11046;SDS011;5576;50.008;10.596;2023-04-15T03:58:26;4.53;;;4.10;;
11046;SDS011;5576;50.008;10.596;2023-04-15T04:00:52;4.63;;;4.23;;
11046;SDS011;5576;50.008;10.596;2023-04-15T04:03:19;4.47;;;4.07;;
11046;SDS011;5576;50.008;10.596;2023-04-15T04:05:45;4.32;;;3.92;;
11046;SDS011;5576;50.008;10.596;2023-04-15T04:08:11;5.30;;;4.65;;
11046;SDS011;5576;50.008;10.596;2023-04-15T04:10:38;6.10;;;5.10;;
11046;SDS011;5576;50.008;10.596;2023-04-15T04:13:04;5.90;;;5.30;;
11046;SDS011;5576;50.008;10.596;2023-04-15T04:15:30;5.45;;;4.95;;
11046;SDS011;5576;50.008;10.596;2023-04-15T04:17:55;5.07;;;4.57;;
11046;SDS011;5576;50.008;10.596;2023-04-15T04:20:21;5.53;;;4.90;;
11046;SDS011;5576;50.008;10.596;2023-04-15T04:22:48;6.43;;;5.82;;
11046;SDS011;5576;50.008;10.596;2023-04-15T04:25:13;7.75;;;6.95;;
11046;SDS011;5576;50.008;10.596;2023-04-15T04:27:40;10.93;;;9.40;;
11046;SDS011;5576;50.008;10.596;2023-04-15T04:30:06;10.30;;;9.25;;
11046;SDS011;5576;50.008;10.596;2023-04-15T04:32:32;6.20;;;5.60;;
11046;SDS011;5576;50.008;10.596;2023-04-15T04:34:58;4.95;;;4.45;;
11046;SDS011;5576;50.008;10.596;2023-04-15T04:37:24;4.87;;;4.47;;
11046;SDS011;5576;50.008;10.596;2023-04-15T04:39:49;5.10;;;4.70;;
11046;SDS011;5576;50.008;10.596;2023-04-15T04:42:15;5.67;;;5.17;;
11046;SDS011;5576;50.008;10.596;2023-04-15T04:44:41;4.90;;;4.47;;
11046;SDS011;5576;50.008;10.596;2023-04-15T04:47:06;5.23;;;4.73;;
11046;SDS011;5576;50.008;10.596;2023-04-15T04:49:32;5.88;;;5.22;;
11046;SDS011;5576;50.008;10.596;2023-04-15T04:51:58;5.73;;;5.10;;
11046;SDS011;5576;50.008;10.596;2023-04-15T04:54:25;5.53;;;5.03;;
11046;SDS011;5576;50.008;10.596;2023-04-15T04:56:51;5.90;;;5.40;;
11046;SDS011;5576;50.008;10.596;2023-04-15T04:59:17;5.80;;;5.22;;
11046;SDS011;5576;50.008;10.596;2023-04-15T05:01:43;5.82;;;5.32;;
11046;SDS011;5576;50.008;10.596;2023-04-15T05:04:09;6.03;;;5.53;;
11046;SDS011;5576;50.008;10.596;2023-04-15T05:06:35;6.43;;;5.77;;
11046;SDS011;5576;50.008;10.596;2023-04-15T05:09:01;7.25;;;6.57;;
11046;SDS011;5576;50.008;10.596;2023-04-15T05:11:27;7.85;;;7.15;;
11046;SDS011;5576;50.008;10.596;2023-04-15T05:13:53;8.73;;;7.65;;
11046;SDS011;5576;50.008;10.596;2023-04-15T05:16:19;7.78;;;7.07;;
11046;SDS011;5576;50.008;10.596;2023-04-15T05:18:45;7.43;;;6.72;;
11046;SDS011;5576;50.008;10.596;2023-04-15T05:21:11;7.53;;;6.82;;
11046;SDS011;5576;50.008;10.596;2023-04-15T05:23:37;7.22;;;6.50;;
11046;SDS011;5576;50.008;10.596;2023-04-15T05:26:03;7.20;;;6.53;;
11046;SDS011;5576;50.008;10.596;2023-04-15T05:28:29;7.05;;;6.45;;
11046;SDS011;5576;50.008;10.596;2023-04-15T05:30:55;6.85;;;6.18;;
11046;SDS011;5576;50.008;10.596;2023-04-15T05:33:20;7.40;;;6.70;;
11046;SDS011;5576;50.008;10.596;2023-04-15T05:35:47;7.60;;;6.90;;
11046;SDS011;5576;50.008;10.596;2023-04-15T05:38:12;6.85;;;6.15;;
11046;SDS011;5576;50.008;10.596;2023-04-15T05:40:38;7.43;;;6.73;;
11046;SDS011;5576;50.008;10.596;2023-04-15T05:43:04;7.20;;;6.53;;
11046;SDS011;5576;50.008;10.596;2023-04-15T05:45:30;7.50;;;6.80;;
11046;SDS011;5576;50.008;10.596;2023-04-15T05:47:55;6.93;;;6.22;;
11046;SDS011;5576;50.008;10.596;2023-04-15T05:50:21;6.60;;;6.00;;
11046;SDS011;5576;50.008;10.596;2023-04-15T05:52:47;6.68;;;6.07;;
11046;SDS011;5576;50.008;10.596;2023-04-15T05:55:12;6.97;;;6.37;;
11046;SDS011;5576;50.008;10.596;2023-04-15T05:57:38;6.95;;;6.35;;
11046;SDS011;5576;50.008;10.596;2023-04-15T06:00:04;6.80;;;6.20;;
11046;SDS011;5576;50.008;10.596;2023-04-15T06:02:35;6.95;;;6.35;;
11046;SDS011;5576;50.008;10.596;2023-04-15T06:05:01;7.37;;;6.67;;
11046;SDS011;5576;50.008;10.596;2023-04-15T06:07:28;8.00;;;7.20;;
11046;SDS011;5576;50.008;10.596;2023-04-15T06:09:53;8.40;;;7.60;;
11046;SDS011;5576;50.008;10.596;2023-04-15T06:12:19;8.40;;;7.47;;
11046;SDS011;5576;50.008;10.596;2023-04-15T06:14:45;9.73;;;8.73;;
11046;SDS011;5576;50.008;10.596;2023-04-15T06:17:11;9.70;;;7.72;;
11046;SDS011;5576;50.008;10.596;2023-04-15T06:19:39;10.07;;;8.25;;
11046;SDS011;5576;50.008;10.596;2023-04-15T06:22:04;11.43;;;8.87;;
11046;SDS011;5576;50.008;10.596;2023-04-15T06:24:31;11.38;;;10.00;;
11046;SDS011;5576;50.008;10.596;2023-04-15T06:26:57;10.13;;;8.80;;
11046;SDS011;5576;50.008;10.596;2023-04-15T06:29:23;12.15;;;9.90;;
11046;SDS011;5576;50.008;10.596;2023-04-15T06:31:48;10.77;;;8.88;;
11046;SDS011;5576;50.008;10.596;2023-04-15T06:34:15;9.85;;;8.65;;
11046;SDS011;5576;50.008;10.596;2023-04-15T06:36:41;10.48;;;9.32;;
11046;SDS011;5576;50.008;10.596;2023-04-15T06:39:07;11.15;;;9.68;;
11046;SDS011;5576;50.008;10.596;2023-04-15T06:41:34;10.53;;;9.37;;
11046;SDS011;5576;50.008;10.596;2023-04-15T06:44:00;11.15;;;9.27;;
11046;SDS011;5576;50.008;10.596;2023-04-15T06:46:26;9.52;;;8.43;;
11046;SDS011;5576;50.008;10.596;2023-04-15T06:48:52;8.95;;;8.10;;
11046;SDS011;5576;50.008;10.596;2023-04-15T06:51:17;9.95;;;8.95;;
11046;SDS011;5576;50.008;10.596;2023-04-15T06:53:43;8.90;;;8.05;;
11046;SDS011;5576;50.008;10.596;2023-04-15T06:56:09;8.50;;;7.70;;
11046;SDS011;5576;50.008;10.596;2023-04-15T06:58:35;9.05;;;8.18;;
11046;SDS011;5576;50.008;10.596;2023-04-15T07:01:01;9.48;;;8.57;;
11046;SDS011;5576;50.008;10.596;2023-04-15T07:03:28;9.20;;;8.40;;
11046;SDS011;5576;50.008;10.596;2023-04-15T07:05:54;9.65;;;8.75;;
11046;SDS011;5576;50.008;10.596;2023-04-15T07:08:20;9.38;;;8.50;;
11046;SDS011;5576;50.008;10.596;2023-04-15T07:10:47;10.65;;;9.55;;
11046;SDS011;5576;50.008;10.596;2023-04-15T07:13:13;10.00;;;9.10;;
11046;SDS011;5576;50.008;10.596;2023-04-15T07:15:38;11.18;;;10.15;;
11046;SDS011;5576;50.008;10.596;2023-04-15T07:18:04;11.60;;;10.47;;
11046;SDS011;5576;50.008;10.596;2023-04-15T07:20:30;10.35;;;9.35;;
11046;SDS011;5576;50.008;10.596;2023-04-15T07:22:56;9.95;;;9.02;;
11046;SDS011;5576;50.008;10.596;2023-04-15T07:25:22;11.27;;;10.07;;
11046;SDS011;5576;50.008;10.596;2023-04-15T07:27:48;11.03;;;10.00;;
11046;SDS011;5576;50.008;10.596;2023-04-15T07:30:13;13.57;;;12.23;;
11046;SDS011;5576;50.008;10.596;2023-04-15T07:32:40;14.18;;;12.77;;
11046;SDS011;5576;50.008;10.596;2023-04-15T07:35:07;12.75;;;11.45;;
11046;SDS011;5576;50.008;10.596;2023-04-15T07:37:33;11.82;;;10.63;;
11046;SDS011;5576;50.008;10.596;2023-04-15T07:40:00;11.20;;;10.07;;
11046;SDS011;5576;50.008;10.596;2023-04-15T07:42:26;10.98;;;9.88;;
11046;SDS011;5576;50.008;10.596;2023-04-15T07:44:53;16.15;;;13.63;;
11046;SDS011;5576;50.008;10.596;2023-04-15T07:47:19;12.35;;;11.05;;
11046;SDS011;5576;50.008;10.596;2023-04-15T07:49:45;12.30;;;11.10;;
11046;SDS011;5576;50.008;10.596;2023-04-15T07:52:11;11.63;;;10.30;;
11046;SDS011;5576;50.008;10.596;2023-04-15T07:54:37;9.98;;;8.98;;
11046;SDS011;5576;50.008;10.596;2023-04-15T07:57:02;9.70;;;8.80;;
11046;SDS011;5576;50.008;10.596;2023-04-15T07:59:28;8.87;;;8.07;;
11046;SDS011;5576;50.008;10.596;2023-04-15T08:01:55;8.52;;;7.65;;
11046;SDS011;5576;50.008;10.596;2023-04-15T08:04:21;9.20;;;7.85;;
11046;SDS011;5576;50.008;10.596;2023-04-15T08:06:47;9.00;;;8.20;;
11046;SDS011;5576;50.008;10.596;2023-04-15T08:09:14;13.57;;;12.45;;
11046;SDS011;5576;50.008;10.596;2023-04-15T08:11:40;9.98;;;8.98;;
11046;SDS011;5576;50.008;10.596;2023-04-15T08:14:06;9.32;;;8.43;;
11046;SDS011;5576;50.008;10.596;2023-04-15T08:16:32;8.80;;;8.00;;
11046;SDS011;5576;50.008;10.596;2023-04-15T08:18:58;9.80;;;8.90;;
11046;SDS011;5576;50.008;10.596;2023-04-15T08:21:24;15.77;;;14.23;;
11046;SDS011;5576;50.008;10.596;2023-04-15T08:23:50;18.15;;;16.35;;
11046;SDS011;5576;50.008;10.596;2023-04-15T08:26:18;10.07;;;9.07;;
11046;SDS011;5576;50.008;10.596;2023-04-15T08:28:44;12.25;;;11.05;;
11046;SDS011;5576;50.008;10.596;2023-04-15T08:31:11;10.65;;;9.65;;
11046;SDS011;5576;50.008;10.596;2023-04-15T08:33:38;11.48;;;10.18;;
11046;SDS011;5576;50.008;10.596;2023-04-15T08:36:04;13.60;;;12.30;;
11046;SDS011;5576;50.008;10.596;2023-04-15T08:38:31;9.50;;;8.48;;
11046;SDS011;5576;50.008;10.596;2023-04-15T08:41:00;13.55;;;12.35;;
11046;SDS011;5576;50.008;10.596;2023-04-15T08:43:33;11.02;;;9.93;;
11046;SDS011;5576;50.008;10.596;2023-04-15T08:46:00;8.40;;;7.60;;
11046;SDS011;5576;50.008;10.596;2023-04-15T08:48:27;8.38;;;7.60;;
11046;SDS011;5576;50.008;10.596;2023-04-15T08:50:55;7.60;;;6.90;;
11046;SDS011;5576;50.008;10.596;2023-04-15T08:53:22;7.07;;;6.47;;
11046;SDS011;5576;50.008;10.596;2023-04-15T08:55:50;6.85;;;6.18;;
11046;SDS011;5576;50.008;10.596;2023-04-15T08:58:17;7.07;;;6.37;;
11046;SDS011;5576;50.008;10.596;2023-04-15T09:00:43;7.25;;;6.55;;
11046;SDS011;5576;50.008;10.596;2023-04-15T09:03:09;6.43;;;5.82;;
11046;SDS011;5576;50.008;10.596;2023-04-15T09:05:36;6.30;;;5.70;;
11046;SDS011;5576;50.008;10.596;2023-04-15T09:08:02;7.18;;;6.47;;
11046;SDS011;5576;50.008;10.596;2023-04-15T09:10:29;6.38;;;5.78;;
11046;SDS011;5576;50.008;10.596;2023-04-15T09:12:55;6.32;;;5.72;;
11046;SDS011;5576;50.008;10.596;2023-04-15T09:15:25;6.07;;;5.57;;
11046;SDS011;5576;50.008;10.596;2023-04-15T09:17:53;5.25;;;4.78;;
11046;SDS011;5576;50.008;10.596;2023-04-15T09:20:20;5.97;;;5.43;;
11046;SDS011;5576;50.008;10.596;2023-04-15T09:22:47;5.93;;;5.33;;
11046;SDS011;5576;50.008;10.596;2023-04-15T09:30:17;8.27;;;6.85;;
11046;SDS011;5576;50.008;10.596;2023-04-15T09:32:50;7.97;;;7.17;;
11046;SDS011;5576;50.008;10.596;2023-04-15T09:35:19;6.30;;;5.70;;
11046;SDS011;5576;50.008;10.596;2023-04-15T09:37:46;6.53;;;5.93;;
11046;SDS011;5576;50.008;10.596;2023-04-15T09:40:13;5.90;;;5.40;;
11046;SDS011;5576;50.008;10.596;2023-04-15T09:42:55;6.60;;;5.90;;
11046;SDS011;5576;50.008;10.596;2023-04-15T09:45:21;5.30;;;4.80;;
11046;SDS011;5576;50.008;10.596;2023-04-15T09:47:48;6.43;;;5.82;;
11046;SDS011;5576;50.008;10.596;2023-04-15T09:50:15;4.73;;;4.33;;
11046;SDS011;5576;50.008;10.596;2023-04-15T09:52:42;5.87;;;5.37;;
11046;SDS011;5576;50.008;10.596;2023-04-15T09:55:09;5.70;;;5.20;;
11046;SDS011;5576;50.008;10.596;2023-04-15T09:57:36;5.60;;;5.20;;
11046;SDS011;5576;50.008;10.596;2023-04-15T10:00:03;5.40;;;4.90;;
11046;SDS011;5576;50.008;10.596;2023-04-15T10:02:33;6.00;;;5.50;;
11046;SDS011;5576;50.008;10.596;2023-04-15T10:05:01;4.90;;;4.50;;
11046;SDS011;5576;50.008;10.596;2023-04-15T10:07:27;5.20;;;4.70;;
11046;SDS011;5576;50.008;10.596;2023-04-15T10:09:54;5.45;;;4.95;;
11046;SDS011;5576;50.008;10.596;2023-04-15T10:12:21;5.40;;;4.90;;
11046;SDS011;5576;50.008;10.596;2023-04-15T10:14:47;6.93;;;6.22;;
11046;SDS011;5576;50.008;10.596;2023-04-15T10:17:17;34.28;;;30.85;;
11046;SDS011;5576;50.008;10.596;2023-04-15T10:19:46;13.10;;;11.85;;
11046;SDS011;5576;50.008;10.596;2023-04-15T10:22:14;12.98;;;11.77;;
11046;SDS011;5576;50.008;10.596;2023-04-15T10:24:41;6.50;;;5.90;;
11046;SDS011;5576;50.008;10.596;2023-04-15T10:27:09;5.32;;;4.82;;
11046;SDS011;5576;50.008;10.596;2023-04-15T10:29:35;6.40;;;5.60;;
11046;SDS011;5576;50.008;10.596;2023-04-15T10:32:01;6.00;;;5.50;;
11046;SDS011;5576;50.008;10.596;2023-04-15T10:34:28;5.47;;;4.97;;
11046;SDS011;5576;50.008;10.596;2023-04-15T10:36:55;4.80;;;4.40;;
11046;SDS011;5576;50.008;10.596;2023-04-15T10:42:06;4.35;;;3.97;;
11046;SDS011;5576;50.008;10.596;2023-04-15T10:44:41;4.30;;;4.00;;
11046;SDS011;5576;50.008;10.596;2023-04-15T10:47:11;5.87;;;5.13;;
11046;SDS011;5576;50.008;10.596;2023-04-15T10:49:47;15.95;;;13.98;;
11046;SDS011;5576;50.008;10.596;2023-04-15T10:52:15;11.13;;;10.02;;
11046;SDS011;5576;50.008;10.596;2023-04-15T10:54:42;6.15;;;5.65;;
11046;SDS011;5576;50.008;10.596;2023-04-15T10:57:13;11.70;;;10.60;;
11046;SDS011;5576;50.008;10.596;2023-04-15T11:05:19;4.30;;;3.90;;
11046;SDS011;5576;50.008;10.596;2023-04-15T11:07:47;4.45;;;4.05;;
11046;SDS011;5576;50.008;10.596;2023-04-15T11:12:53;5.60;;;5.10;;
11046;SDS011;5576;50.008;10.596;2023-04-15T11:15:38;6.20;;;5.60;;
11046;SDS011;5576;50.008;10.596;2023-04-15T11:20:54;3.90;;;3.60;;
11046;SDS011;5576;50.008;10.596;2023-04-15T11:26:00;4.70;;;4.30;;
11046;SDS011;5576;50.008;10.596;2023-04-15T11:28:30;5.30;;;4.80;;
11046;SDS011;5576;50.008;10.596;2023-04-15T11:30:57;4.25;;;3.85;;
11046;SDS011;5576;50.008;10.596;2023-04-15T11:33:23;3.97;;;3.60;;
11046;SDS011;5576;50.008;10.596;2023-04-15T11:35:51;6.10;;;5.50;;
11046;SDS011;5576;50.008;10.596;2023-04-15T11:38:18;10.50;;;8.10;;
11046;SDS011;5576;50.008;10.596;2023-04-15T11:40:44;7.78;;;6.45;;
11046;SDS011;5576;50.008;10.596;2023-04-15T11:48:26;16.73;;;15.05;;
11046;SDS011;5576;50.008;10.596;2023-04-15T11:50:54;5.32;;;4.82;;
11046;SDS011;5576;50.008;10.596;2023-04-15T11:53:22;5.50;;;5.00;;
11046;SDS011;5576;50.008;10.596;2023-04-15T11:55:50;3.63;;;3.33;;
11046;SDS011;5576;50.008;10.596;2023-04-15T12:00:56;10.67;;;9.13;;
11046;SDS011;5576;50.008;10.596;2023-04-15T12:06:14;16.80;;;12.23;;
11046;SDS011;5576;50.008;10.596;2023-04-15T12:09:06;6.85;;;5.97;;
11046;SDS011;5576;50.008;10.596;2023-04-15T12:11:35;4.97;;;4.57;;
11046;SDS011;5576;50.008;10.596;2023-04-15T12:14:05;4.35;;;3.95;;
11046;SDS011;5576;50.008;10.596;2023-04-15T12:16:35;5.15;;;4.75;;
11046;SDS011;5576;50.008;10.596;2023-04-15T12:19:07;4.03;;;3.70;;
11046;SDS011;5576;50.008;10.596;2023-04-15T12:21:38;4.18;;;3.78;;
11046;SDS011;5576;50.008;10.596;2023-04-15T12:24:07;5.50;;;5.00;;
11046;SDS011;5576;50.008;10.596;2023-04-15T12:26:36;5.57;;;5.07;;
11046;SDS011;5576;50.008;10.596;2023-04-15T12:29:07;4.00;;;3.60;;
11046;SDS011;5576;50.008;10.596;2023-04-15T12:31:34;4.55;;;4.15;;
11046;SDS011;5576;50.008;10.596;2023-04-15T12:34:02;3.17;;;2.97;;
11046;SDS011;5576;50.008;10.596;2023-04-15T12:36:29;4.60;;;4.20;;
11046;SDS011;5576;50.008;10.596;2023-04-15T12:39:01;2.90;;;2.70;;
11046;SDS011;5576;50.008;10.596;2023-04-15T12:41:28;3.33;;;3.03;;
11046;SDS011;5576;50.008;10.596;2023-04-15T12:43:54;5.53;;;5.03;;
11046;SDS011;5576;50.008;10.596;2023-04-15T12:46:20;4.40;;;4.10;;
11046;SDS011;5576;50.008;10.596;2023-04-15T12:48:46;3.88;;;3.58;;
11046;SDS011;5576;50.008;10.596;2023-04-15T12:51:13;4.38;;;3.97;;
11046;SDS011;5576;50.008;10.596;2023-04-15T12:53:39;4.40;;;4.00;;
11046;SDS011;5576;50.008;10.596;2023-04-15T12:56:04;5.70;;;5.10;;
11046;SDS011;5576;50.008;10.596;2023-04-15T12:58:30;8.00;;;7.20;;
11046;SDS011;5576;50.008;10.596;2023-04-15T13:00:57;11.05;;;8.23;;
11046;SDS011;5576;50.008;10.596;2023-04-15T13:03:23;6.85;;;6.25;;
11046;SDS011;5576;50.008;10.596;2023-04-15T13:05:49;7.77;;;7.07;;
11046;SDS011;5576;50.008;10.596;2023-04-15T13:08:15;4.53;;;4.03;;
11046;SDS011;5576;50.008;10.596;2023-04-15T13:10:41;3.87;;;3.47;;
11046;SDS011;5576;50.008;10.596;2023-04-15T13:13:07;4.45;;;4.05;;
11046;SDS011;5576;50.008;10.596;2023-04-15T13:15:33;4.93;;;4.43;;
11046;SDS011;5576;50.008;10.596;2023-04-15T13:17:59;4.32;;;3.92;;
11046;SDS011;5576;50.008;10.596;2023-04-15T13:20:25;4.20;;;3.80;;
11046;SDS011;5576;50.008;10.596;2023-04-15T13:22:52;4.97;;;4.50;;
11046;SDS011;5576;50.008;10.596;2023-04-15T13:25:18;7.45;;;6.30;;
11046;SDS011;5576;50.008;10.596;2023-04-15T13:27:44;4.03;;;3.73;;
11046;SDS011;5576;50.008;10.596;2023-04-15T13:30:10;4.45;;;4.05;;
11046;SDS011;5576;50.008;10.596;2023-04-15T13:32:37;7.18;;;5.85;;
11046;SDS011;5576;50.008;10.596;2023-04-15T13:35:03;5.90;;;5.30;;
11046;SDS011;5576;50.008;10.596;2023-04-15T13:37:29;9.00;;;7.80;;
11046;SDS011;5576;50.008;10.596;2023-04-15T13:39:55;9.02;;;6.78;;
11046;SDS011;5576;50.008;10.596;2023-04-15T13:42:21;6.85;;;5.43;;
11046;SDS011;5576;50.008;10.596;2023-04-15T13:44:49;14.90;;;13.30;;
11046;SDS011;5576;50.008;10.596;2023-04-15T13:47:16;9.57;;;8.57;;
11046;SDS011;5576;50.008;10.596;2023-04-15T13:49:43;8.10;;;6.80;;
11046;SDS011;5576;50.008;10.596;2023-04-15T13:52:10;3.88;;;3.58;;
11046;SDS011;5576;50.008;10.596;2023-04-15T13:54:36;3.40;;;3.10;;
11046;SDS011;5576;50.008;10.596;2023-04-15T13:57:02;4.82;;;4.38;;
11046;SDS011;5576;50.008;10.596;2023-04-15T13:59:29;11.30;;;9.80;;
11046;SDS011;5576;50.008;10.596;2023-04-15T14:01:54;51.72;;;39.65;;
11046;SDS011;5576;50.008;10.596;2023-04-15T14:04:20;42.00;;;33.27;;
11046;SDS011;5576;50.008;10.596;2023-04-15T14:06:46;9.85;;;8.63;;
11046;SDS011;5576;50.008;10.596;2023-04-15T14:09:12;26.70;;;23.07;;
11046;SDS011;5576;50.008;10.596;2023-04-15T14:11:38;6.77;;;6.13;;
11046;SDS011;5576;50.008;10.596;2023-04-15T14:14:04;11.40;;;9.63;;
11046;SDS011;5576;50.008;10.596;2023-04-15T14:16:31;9.40;;;7.57;;
11046;SDS011;5576;50.008;10.596;2023-04-15T14:18:58;13.20;;;10.07;;
11046;SDS011;5576;50.008;10.596;2023-04-15T14:21:23;6.13;;;5.53;;
11046;SDS011;5576;50.008;10.596;2023-04-15T14:23:52;5.43;;;4.85;;
11046;SDS011;5576;50.008;10.596;2023-04-15T14:26:17;3.70;;;3.20;;
11046;SDS011;5576;50.008;10.596;2023-04-15T14:28:43;5.47;;;4.97;;
11046;SDS011;5576;50.008;10.596;2023-04-15T14:31:09;5.03;;;4.63;;
11046;SDS011;5576;50.008;10.596;2023-04-15T14:33:35;2.83;;;2.53;;
11046;SDS011;5576;50.008;10.596;2023-04-15T14:36:01;5.30;;;4.90;;
11046;SDS011;5576;50.008;10.596;2023-04-15T14:38:27;6.93;;;6.43;;
11046;SDS011;5576;50.008;10.596;2023-04-15T14:40:53;4.37;;;3.97;;
11046;SDS011;5576;50.008;10.596;2023-04-15T14:43:19;2.97;;;2.78;;
11046;SDS011;5576;50.008;10.596;2023-04-15T14:45:45;3.72;;;2.90;;
11046;SDS011;5576;50.008;10.596;2023-04-15T14:48:12;3.78;;;3.47;;
11046;SDS011;5576;50.008;10.596;2023-04-15T14:50:38;3.20;;;2.90;;
11046;SDS011;5576;50.008;10.596;2023-04-15T14:53:04;3.37;;;3.07;;
11046;SDS011;5576;50.008;10.596;2023-04-15T14:55:30;3.10;;;2.80;;
11046;SDS011;5576;50.008;10.596;2023-04-15T14:57:55;3.33;;;3.03;;
11046;SDS011;5576;50.008;10.596;2023-04-15T15:00:21;2.92;;;2.70;;
11046;SDS011;5576;50.008;10.596;2023-04-15T15:02:47;3.40;;;3.10;;
11046;SDS011;5576;50.008;10.596;2023-04-15T15:05:13;3.03;;;2.78;;
11046;SDS011;5576;50.008;10.596;2023-04-15T15:07:38;3.40;;;3.10;;
11046;SDS011;5576;50.008;10.596;2023-04-15T15:10:05;3.33;;;3.03;;
11046;SDS011;5576;50.008;10.596;2023-04-15T15:12:32;3.90;;;3.53;;
11046;SDS011;5576;50.008;10.596;2023-04-15T15:14:58;4.75;;;4.28;;